sensor_id;sensor_type;location;lat;lon;timestamp;P1;durP1;ratioP1;P2;durP2;ratioP2
15764;SDS011;7983;50.744;7.086;2023-03-13T00:01:45;7.30;;;2.05;;
15764;SDS011;7983;50.744;7.086;2023-03-13T00:04:15;7.03;;;2.00;;
15764;SDS011;7983;50.744;7.086;2023-03-13T00:06:42;7.57;;;2.05;;
15764;SDS011;7983;50.744;7.086;2023-03-13T00:09:10;7.78;;;1.60;;
15764;SDS011;7983;50.744;7.086;2023-03-13T00:11:36;9.07;;;2.25;;
15764;SDS011;7983;50.744;7.086;2023-03-13T00:14:05;10.02;;;2.50;;
15764;SDS011;7983;50.744;7.086;2023-03-13T00:16:31;9.70;;;3.25;;
15764;SDS011;7983;50.744;7.086;2023-03-13T00:18:59;12.55;;;2.70;;
15764;SDS011;7983;50.744;7.086;2023-03-13T00:21:28;8.40;;;2.38;;
15764;SDS011;7983;50.744;7.086;2023-03-13T00:23:57;8.00;;;2.55;;
15764;SDS011;7983;50.744;7.086;2023-03-13T00:26:25;11.20;;;3.05;;
15764;SDS011;7983;50.744;7.086;2023-03-13T00:28:52;7.32;;;2.25;;
15764;SDS011;7983;50.744;7.086;2023-03-13T00:31:25;8.15;;;2.10;;
15764;SDS011;7983;50.744;7.086;2023-03-13T00:33:59;6.85;;;1.98;;
15764;SDS011;7983;50.744;7.086;2023-03-13T00:36:32;11.43;;;2.47;;
15764;SDS011;7983;50.744;7.086;2023-03-13T00:39:02;9.90;;;2.30;;
15764;SDS011;7983;50.744;7.086;2023-03-13T00:41:30;7.60;;;2.38;;
15764;SDS011;7983;50.744;7.086;2023-03-13T00:43:56;10.43;;;2.58;;
15764;SDS011;7983;50.744;7.086;2023-03-13T00:46:25;11.35;;;2.30;;
15764;SDS011;7983;50.744;7.086;2023-03-13T00:48:52;8.48;;;2.33;;
15764;SDS011;7983;50.744;7.086;2023-03-13T00:51:18;7.65;;;2.13;;
15764;SDS011;7983;50.744;7.086;2023-03-13T00:53:45;5.88;;;1.80;;
15764;SDS011;7983;50.744;7.086;2023-03-13T00:56:17;7.13;;;2.45;;
15764;SDS011;7983;50.744;7.086;2023-03-13T00:58:44;10.13;;;2.40;;
15764;SDS011;7983;50.744;7.086;2023-03-13T01:03:45;5.88;;;1.95;;
15764;SDS011;7983;50.744;7.086;2023-03-13T01:06:15;9.32;;;2.85;;
15764;SDS011;7983;50.744;7.086;2023-03-13T01:08:45;7.40;;;2.10;;
15764;SDS011;7983;50.744;7.086;2023-03-13T01:11:12;7.07;;;2.40;;
15764;SDS011;7983;50.744;7.086;2023-03-13T01:13:42;5.88;;;1.70;;
15764;SDS011;7983;50.744;7.086;2023-03-13T01:18:38;4.50;;;1.77;;
15764;SDS011;7983;50.744;7.086;2023-03-13T01:21:10;10.13;;;2.20;;
15764;SDS011;7983;50.744;7.086;2023-03-13T01:23:38;4.97;;;1.85;;
15764;SDS011;7983;50.744;7.086;2023-03-13T01:26:04;5.25;;;2.20;;
15764;SDS011;7983;50.744;7.086;2023-03-13T01:28:33;7.15;;;1.92;;
15764;SDS011;7983;50.744;7.086;2023-03-13T01:31:00;8.75;;;2.40;;
15764;SDS011;7983;50.744;7.086;2023-03-13T01:33:34;7.28;;;2.30;;
15764;SDS011;7983;50.744;7.086;2023-03-13T01:36:02;7.47;;;1.90;;
15764;SDS011;7983;50.744;7.086;2023-03-13T01:38:33;9.95;;;2.40;;
15764;SDS011;7983;50.744;7.086;2023-03-13T01:41:01;8.05;;;1.98;;
15764;SDS011;7983;50.744;7.086;2023-03-13T01:43:30;5.47;;;1.73;;
15764;SDS011;7983;50.744;7.086;2023-03-13T01:50:58;10.30;;;2.28;;
15764;SDS011;7983;50.744;7.086;2023-03-13T01:53:28;7.18;;;1.73;;
15764;SDS011;7983;50.744;7.086;2023-03-13T01:55:57;6.63;;;1.90;;
15764;SDS011;7983;50.744;7.086;2023-03-13T01:58:27;4.78;;;1.90;;
15764;SDS011;7983;50.744;7.086;2023-03-13T02:00:54;6.47;;;1.80;;
15764;SDS011;7983;50.744;7.086;2023-03-13T02:03:25;4.57;;;1.48;;
15764;SDS011;7983;50.744;7.086;2023-03-13T02:05:53;4.63;;;1.77;;
15764;SDS011;7983;50.744;7.086;2023-03-13T02:08:31;7.55;;;1.88;;
15764;SDS011;7983;50.744;7.086;2023-03-13T02:11:15;6.18;;;1.40;;
15764;SDS011;7983;50.744;7.086;2023-03-13T02:14:01;5.32;;;1.38;;
15764;SDS011;7983;50.744;7.086;2023-03-13T02:16:28;4.70;;;1.60;;
15764;SDS011;7983;50.744;7.086;2023-03-13T02:18:57;5.53;;;1.60;;
15764;SDS011;7983;50.744;7.086;2023-03-13T02:21:30;5.05;;;1.60;;
15764;SDS011;7983;50.744;7.086;2023-03-13T02:26:55;3.35;;;1.10;;
15764;SDS011;7983;50.744;7.086;2023-03-13T02:29:21;3.40;;;1.30;;
15764;SDS011;7983;50.744;7.086;2023-03-13T02:31:51;3.50;;;1.30;;
15764;SDS011;7983;50.744;7.086;2023-03-13T02:34:20;3.72;;;1.27;;
15764;SDS011;7983;50.744;7.086;2023-03-13T02:36:54;3.75;;;1.27;;
15764;SDS011;7983;50.744;7.086;2023-03-13T02:39:23;3.67;;;1.33;;
15764;SDS011;7983;50.744;7.086;2023-03-13T02:41:50;3.70;;;1.33;;
15764;SDS011;7983;50.744;7.086;2023-03-13T02:44:20;3.83;;;1.27;;
15764;SDS011;7983;50.744;7.086;2023-03-13T02:46:49;3.30;;;1.27;;
15764;SDS011;7983;50.744;7.086;2023-03-13T02:49:27;1.80;;;1.00;;
15764;SDS011;7983;50.744;7.086;2023-03-13T02:52:01;4.30;;;1.40;;
15764;SDS011;7983;50.744;7.086;2023-03-13T02:54:54;2.45;;;0.93;;
15764;SDS011;7983;50.744;7.086;2023-03-13T02:57:26;2.58;;;1.10;;
15764;SDS011;7983;50.744;7.086;2023-03-13T02:59:51;1.80;;;0.90;;
15764;SDS011;7983;50.744;7.086;2023-03-13T03:02:17;2.88;;;0.80;;
15764;SDS011;7983;50.744;7.086;2023-03-13T03:04:47;2.60;;;0.80;;
15764;SDS011;7983;50.744;7.086;2023-03-13T03:07:13;2.50;;;1.10;;
15764;SDS011;7983;50.744;7.086;2023-03-13T03:09:39;2.45;;;1.00;;
15764;SDS011;7983;50.744;7.086;2023-03-13T03:12:04;3.53;;;1.25;;
15764;SDS011;7983;50.744;7.086;2023-03-13T03:14:32;2.72;;;1.00;;
15764;SDS011;7983;50.744;7.086;2023-03-13T03:16:58;1.92;;;1.00;;
15764;SDS011;7983;50.744;7.086;2023-03-13T03:19:24;1.70;;;1.02;;
15764;SDS011;7983;50.744;7.086;2023-03-13T03:21:49;3.03;;;1.20;;
15764;SDS011;7983;50.744;7.086;2023-03-13T03:24:15;2.13;;;1.00;;
15764;SDS011;7983;50.744;7.086;2023-03-13T03:26:40;1.38;;;0.70;;
15764;SDS011;7983;50.744;7.086;2023-03-13T03:29:06;1.88;;;0.90;;
15764;SDS011;7983;50.744;7.086;2023-03-13T03:31:34;1.80;;;0.70;;
15764;SDS011;7983;50.744;7.086;2023-03-13T03:34:02;1.23;;;0.65;;
15764;SDS011;7983;50.744;7.086;2023-03-13T03:36:28;0.75;;;0.43;;
15764;SDS011;7983;50.744;7.086;2023-03-13T03:38:56;0.98;;;0.70;;
15764;SDS011;7983;50.744;7.086;2023-03-13T03:41:23;2.28;;;0.90;;
15764;SDS011;7983;50.744;7.086;2023-03-13T03:43:53;1.38;;;0.70;;
15764;SDS011;7983;50.744;7.086;2023-03-13T03:46:18;1.70;;;0.70;;
15764;SDS011;7983;50.744;7.086;2023-03-13T03:48:44;1.17;;;0.60;;
15764;SDS011;7983;50.744;7.086;2023-03-13T03:51:10;1.00;;;0.60;;
15764;SDS011;7983;50.744;7.086;2023-03-13T03:53:37;1.00;;;0.70;;
15764;SDS011;7983;50.744;7.086;2023-03-13T03:56:05;1.10;;;0.50;;
15764;SDS011;7983;50.744;7.086;2023-03-13T03:58:31;1.55;;;0.63;;
15764;SDS011;7983;50.744;7.086;2023-03-13T04:01:01;0.60;;;0.40;;
15764;SDS011;7983;50.744;7.086;2023-03-13T04:03:29;0.45;;;0.40;;
15764;SDS011;7983;50.744;7.086;2023-03-13T04:05:57;1.45;;;0.70;;
15764;SDS011;7983;50.744;7.086;2023-03-13T04:08:23;0.93;;;0.60;;
15764;SDS011;7983;50.744;7.086;2023-03-13T04:10:49;1.25;;;0.50;;
15764;SDS011;7983;50.744;7.086;2023-03-13T04:13:15;0.75;;;0.50;;
15764;SDS011;7983;50.744;7.086;2023-03-13T04:15:41;0.80;;;0.60;;
15764;SDS011;7983;50.744;7.086;2023-03-13T04:18:07;0.88;;;0.50;;
15764;SDS011;7983;50.744;7.086;2023-03-13T04:20:32;1.15;;;0.40;;
15764;SDS011;7983;50.744;7.086;2023-03-13T04:23:00;0.43;;;0.30;;
15764;SDS011;7983;50.744;7.086;2023-03-13T04:25:28;0.50;;;0.40;;
15764;SDS011;7983;50.744;7.086;2023-03-13T04:27:54;0.65;;;0.35;;
15764;SDS011;7983;50.744;7.086;2023-03-13T04:30:20;0.30;;;0.30;;
15764;SDS011;7983;50.744;7.086;2023-03-13T04:32:47;0.40;;;0.40;;
15764;SDS011;7983;50.744;7.086;2023-03-13T04:35:15;0.60;;;0.40;;
15764;SDS011;7983;50.744;7.086;2023-03-13T04:37:40;0.45;;;0.40;;
15764;SDS011;7983;50.744;7.086;2023-03-13T04:40:07;0.68;;;0.40;;
15764;SDS011;7983;50.744;7.086;2023-03-13T04:42:40;0.70;;;0.60;;
15764;SDS011;7983;50.744;7.086;2023-03-13T04:45:10;0.77;;;0.60;;
15764;SDS011;7983;50.744;7.086;2023-03-13T04:47:38;1.45;;;1.08;;
15764;SDS011;7983;50.744;7.086;2023-03-13T04:50:04;0.73;;;0.70;;
15764;SDS011;7983;50.744;7.086;2023-03-13T04:52:30;0.98;;;0.50;;
15764;SDS011;7983;50.744;7.086;2023-03-13T04:54:55;1.50;;;0.45;;
15764;SDS011;7983;50.744;7.086;2023-03-13T04:57:21;0.45;;;0.40;;
15764;SDS011;7983;50.744;7.086;2023-03-13T04:59:48;0.50;;;0.40;;
15764;SDS011;7983;50.744;7.086;2023-03-13T05:02:13;0.50;;;0.40;;
15764;SDS011;7983;50.744;7.086;2023-03-13T05:04:41;0.68;;;0.40;;
15764;SDS011;7983;50.744;7.086;2023-03-13T05:07:09;0.95;;;0.43;;
15764;SDS011;7983;50.744;7.086;2023-03-13T05:09:35;0.70;;;0.50;;
15764;SDS011;7983;50.744;7.086;2023-03-13T05:12:01;0.50;;;0.40;;
15764;SDS011;7983;50.744;7.086;2023-03-13T05:14:26;0.70;;;0.40;;
15764;SDS011;7983;50.744;7.086;2023-03-13T05:16:57;0.30;;;0.30;;
15764;SDS011;7983;50.744;7.086;2023-03-13T05:19:25;0.25;;;0.20;;
15764;SDS011;7983;50.744;7.086;2023-03-13T05:21:50;0.77;;;0.47;;
15764;SDS011;7983;50.744;7.086;2023-03-13T05:24:18;0.90;;;0.80;;
15764;SDS011;7983;50.744;7.086;2023-03-13T05:26:44;3.97;;;2.65;;
15764;SDS011;7983;50.744;7.086;2023-03-13T05:29:10;12.70;;;6.38;;
15764;SDS011;7983;50.744;7.086;2023-03-13T05:31:35;7.22;;;3.90;;
15764;SDS011;7983;50.744;7.086;2023-03-13T05:34:01;5.07;;;3.30;;
15764;SDS011;7983;50.744;7.086;2023-03-13T05:36:26;4.03;;;2.17;;
15764;SDS011;7983;50.744;7.086;2023-03-13T05:38:52;2.88;;;1.98;;
15764;SDS011;7983;50.744;7.086;2023-03-13T05:41:20;2.20;;;1.42;;
15764;SDS011;7983;50.744;7.086;2023-03-13T05:43:50;2.00;;;1.33;;
15764;SDS011;7983;50.744;7.086;2023-03-13T05:46:16;1.15;;;0.80;;
15764;SDS011;7983;50.744;7.086;2023-03-13T05:48:44;0.65;;;0.50;;
15764;SDS011;7983;50.744;7.086;2023-03-13T05:51:13;0.60;;;0.52;;
15764;SDS011;7983;50.744;7.086;2023-03-13T05:53:41;0.80;;;0.60;;
15764;SDS011;7983;50.744;7.086;2023-03-13T05:56:09;0.25;;;0.25;;
15764;SDS011;7983;50.744;7.086;2023-03-13T05:58:37;0.40;;;0.40;;
15764;SDS011;7983;50.744;7.086;2023-03-13T06:01:08;0.30;;;0.30;;
15764;SDS011;7983;50.744;7.086;2023-03-13T06:03:35;0.65;;;0.40;;
15764;SDS011;7983;50.744;7.086;2023-03-13T06:06:01;0.30;;;0.30;;
15764;SDS011;7983;50.744;7.086;2023-03-13T06:08:31;0.60;;;0.40;;
15764;SDS011;7983;50.744;7.086;2023-03-13T06:10:59;0.50;;;0.30;;
15764;SDS011;7983;50.744;7.086;2023-03-13T06:13:26;0.98;;;0.50;;
15764;SDS011;7983;50.744;7.086;2023-03-13T06:15:55;1.02;;;0.40;;
15764;SDS011;7983;50.744;7.086;2023-03-13T06:18:21;1.02;;;0.52;;
15764;SDS011;7983;50.744;7.086;2023-03-13T06:20:48;0.90;;;0.47;;
15764;SDS011;7983;50.744;7.086;2023-03-13T06:23:22;0.73;;;0.73;;
15764;SDS011;7983;50.744;7.086;2023-03-13T06:25:50;1.60;;;0.88;;
15764;SDS011;7983;50.744;7.086;2023-03-13T06:28:15;1.10;;;0.90;;
15764;SDS011;7983;50.744;7.086;2023-03-13T06:30:41;2.05;;;1.13;;
15764;SDS011;7983;50.744;7.086;2023-03-13T06:33:07;2.65;;;1.58;;
15764;SDS011;7983;50.744;7.086;2023-03-13T06:35:33;1.02;;;0.80;;
15764;SDS011;7983;50.744;7.086;2023-03-13T06:38:01;0.93;;;0.63;;
15764;SDS011;7983;50.744;7.086;2023-03-13T06:40:27;0.60;;;0.50;;
15764;SDS011;7983;50.744;7.086;2023-03-13T06:42:52;0.43;;;0.40;;
15764;SDS011;7983;50.744;7.086;2023-03-13T06:45:18;0.88;;;0.50;;
15764;SDS011;7983;50.744;7.086;2023-03-13T06:47:46;1.73;;;0.35;;
15764;SDS011;7983;50.744;7.086;2023-03-13T06:50:15;1.35;;;0.57;;
15764;SDS011;7983;50.744;7.086;2023-03-13T06:52:41;1.08;;;0.80;;
15764;SDS011;7983;50.744;7.086;2023-03-13T06:55:07;0.93;;;0.82;;
15764;SDS011;7983;50.744;7.086;2023-03-13T06:57:33;1.42;;;0.60;;
15764;SDS011;7983;50.744;7.086;2023-03-13T06:59:59;1.20;;;0.73;;
15764;SDS011;7983;50.744;7.086;2023-03-13T07:02:24;0.95;;;0.85;;
15764;SDS011;7983;50.744;7.086;2023-03-13T07:04:50;1.05;;;0.80;;
15764;SDS011;7983;50.744;7.086;2023-03-13T07:07:16;1.45;;;0.98;;
15764;SDS011;7983;50.744;7.086;2023-03-13T07:09:41;2.13;;;1.10;;
15764;SDS011;7983;50.744;7.086;2023-03-13T07:12:11;1.50;;;1.10;;
15764;SDS011;7983;50.744;7.086;2023-03-13T07:14:39;2.30;;;1.45;;
15764;SDS011;7983;50.744;7.086;2023-03-13T07:17:07;2.72;;;1.20;;
15764;SDS011;7983;50.744;7.086;2023-03-13T07:19:33;1.92;;;1.17;;
15764;SDS011;7983;50.744;7.086;2023-03-13T07:21:58;2.75;;;1.50;;
15764;SDS011;7983;50.744;7.086;2023-03-13T07:24:26;1.52;;;1.10;;
15764;SDS011;7983;50.744;7.086;2023-03-13T07:26:52;2.03;;;1.23;;
15764;SDS011;7983;50.744;7.086;2023-03-13T07:29:20;2.75;;;1.40;;
15764;SDS011;7983;50.744;7.086;2023-03-13T07:31:48;2.80;;;1.30;;
15764;SDS011;7983;50.744;7.086;2023-03-13T07:34:13;1.98;;;1.35;;
15764;SDS011;7983;50.744;7.086;2023-03-13T07:36:44;2.38;;;1.25;;
15764;SDS011;7983;50.744;7.086;2023-03-13T07:39:09;4.63;;;1.83;;
15764;SDS011;7983;50.744;7.086;2023-03-13T07:41:35;2.22;;;1.35;;
15764;SDS011;7983;50.744;7.086;2023-03-13T07:44:00;3.83;;;1.50;;
15764;SDS011;7983;50.744;7.086;2023-03-13T07:46:26;3.28;;;1.30;;
15764;SDS011;7983;50.744;7.086;2023-03-13T07:48:57;2.85;;;1.42;;
15764;SDS011;7983;50.744;7.086;2023-03-13T07:51:23;1.75;;;1.20;;
15764;SDS011;7983;50.744;7.086;2023-03-13T07:53:52;3.13;;;1.38;;
15764;SDS011;7983;50.744;7.086;2023-03-13T07:56:21;2.65;;;1.40;;
15764;SDS011;7983;50.744;7.086;2023-03-13T07:58:48;3.70;;;1.30;;
15764;SDS011;7983;50.744;7.086;2023-03-13T08:01:18;2.75;;;1.52;;
15764;SDS011;7983;50.744;7.086;2023-03-13T08:03:50;3.03;;;1.60;;
15764;SDS011;7983;50.744;7.086;2023-03-13T08:06:18;3.80;;;1.50;;
15764;SDS011;7983;50.744;7.086;2023-03-13T08:08:48;2.75;;;1.30;;
15764;SDS011;7983;50.744;7.086;2023-03-13T08:11:18;2.40;;;1.40;;
15764;SDS011;7983;50.744;7.086;2023-03-13T08:13:46;2.65;;;1.25;;
15764;SDS011;7983;50.744;7.086;2023-03-13T08:16:18;2.50;;;1.40;;
15764;SDS011;7983;50.744;7.086;2023-03-13T08:18:47;1.95;;;1.20;;
15764;SDS011;7983;50.744;7.086;2023-03-13T08:21:19;3.63;;;1.42;;
15764;SDS011;7983;50.744;7.086;2023-03-13T08:23:56;3.08;;;1.45;;
15764;SDS011;7983;50.744;7.086;2023-03-13T08:26:24;2.20;;;1.10;;
15764;SDS011;7983;50.744;7.086;2023-03-13T08:28:52;3.10;;;1.35;;
15764;SDS011;7983;50.744;7.086;2023-03-13T08:31:25;2.42;;;1.50;;
15764;SDS011;7983;50.744;7.086;2023-03-13T08:34:11;4.18;;;1.80;;
15764;SDS011;7983;50.744;7.086;2023-03-13T08:36:38;3.00;;;1.58;;
15764;SDS011;7983;50.744;7.086;2023-03-13T08:39:06;4.25;;;2.50;;
15764;SDS011;7983;50.744;7.086;2023-03-13T08:41:35;2.85;;;1.70;;
15764;SDS011;7983;50.744;7.086;2023-03-13T08:44:02;3.58;;;1.60;;
15764;SDS011;7983;50.744;7.086;2023-03-13T08:46:29;5.15;;;1.80;;
15764;SDS011;7983;50.744;7.086;2023-03-13T08:48:56;3.95;;;1.60;;
15764;SDS011;7983;50.744;7.086;2023-03-13T08:51:23;3.08;;;1.50;;
15764;SDS011;7983;50.744;7.086;2023-03-13T08:53:50;2.70;;;1.50;;
15764;SDS011;7983;50.744;7.086;2023-03-13T08:56:17;3.55;;;1.90;;
15764;SDS011;7983;50.744;7.086;2023-03-13T08:58:50;5.78;;;1.90;;
15764;SDS011;7983;50.744;7.086;2023-03-13T09:01:21;4.57;;;1.52;;
15764;SDS011;7983;50.744;7.086;2023-03-13T09:03:50;3.83;;;1.50;;
15764;SDS011;7983;50.744;7.086;2023-03-13T09:06:16;3.42;;;1.67;;
15764;SDS011;7983;50.744;7.086;2023-03-13T09:08:45;1.77;;;1.20;;
15764;SDS011;7983;50.744;7.086;2023-03-13T09:11:12;3.42;;;1.30;;
15764;SDS011;7983;50.744;7.086;2023-03-13T09:13:40;3.58;;;1.30;;
15764;SDS011;7983;50.744;7.086;2023-03-13T09:16:19;2.83;;;1.17;;
15764;SDS011;7983;50.744;7.086;2023-03-13T09:18:48;2.10;;;1.10;;
15764;SDS011;7983;50.744;7.086;2023-03-13T09:21:16;6.13;;;1.50;;
15764;SDS011;7983;50.744;7.086;2023-03-13T09:23:49;1.42;;;0.90;;
15764;SDS011;7983;50.744;7.086;2023-03-13T09:26:18;3.50;;;1.20;;
15764;SDS011;7983;50.744;7.086;2023-03-13T09:28:44;1.75;;;1.10;;
15764;SDS011;7983;50.744;7.086;2023-03-13T09:31:16;4.00;;;1.27;;
15764;SDS011;7983;50.744;7.086;2023-03-13T09:33:48;1.60;;;1.08;;
15764;SDS011;7983;50.744;7.086;2023-03-13T09:36:15;2.10;;;1.10;;
15764;SDS011;7983;50.744;7.086;2023-03-13T09:38:46;2.35;;;1.00;;
15764;SDS011;7983;50.744;7.086;2023-03-13T09:44:21;2.88;;;0.80;;
15764;SDS011;7983;50.744;7.086;2023-03-13T09:47:03;2.33;;;1.17;;
15764;SDS011;7983;50.744;7.086;2023-03-13T09:49:40;1.73;;;1.00;;
15764;SDS011;7983;50.744;7.086;2023-03-13T09:54:51;1.17;;;0.98;;
15764;SDS011;7983;50.744;7.086;2023-03-13T10:02:56;1.05;;;0.90;;
15764;SDS011;7983;50.744;7.086;2023-03-13T10:05:29;3.80;;;1.00;;
15764;SDS011;7983;50.744;7.086;2023-03-13T10:08:00;1.85;;;0.80;;
15764;SDS011;7983;50.744;7.086;2023-03-13T10:13:12;2.00;;;0.82;;
15764;SDS011;7983;50.744;7.086;2023-03-13T10:15:47;2.20;;;0.85;;
15764;SDS011;7983;50.744;7.086;2023-03-13T10:18:25;1.73;;;0.88;;
15764;SDS011;7983;50.744;7.086;2023-03-13T10:20:59;1.80;;;0.80;;
15764;SDS011;7983;50.744;7.086;2023-03-13T10:26:20;2.05;;;1.00;;
15764;SDS011;7983;50.744;7.086;2023-03-13T10:28:50;1.65;;;1.00;;
15764;SDS011;7983;50.744;7.086;2023-03-13T10:31:25;3.38;;;1.00;;
15764;SDS011;7983;50.744;7.086;2023-03-13T10:34:10;1.42;;;0.98;;
15764;SDS011;7983;50.744;7.086;2023-03-13T10:36:53;1.55;;;0.88;;
15764;SDS011;7983;50.744;7.086;2023-03-13T10:39:27;1.30;;;1.08;;
15764;SDS011;7983;50.744;7.086;2023-03-13T10:41:56;1.58;;;0.90;;
15764;SDS011;7983;50.744;7.086;2023-03-13T10:44:34;1.42;;;0.80;;
15764;SDS011;7983;50.744;7.086;2023-03-13T10:47:05;1.45;;;0.88;;
15764;SDS011;7983;50.744;7.086;2023-03-13T10:49:35;1.60;;;0.93;;
15764;SDS011;7983;50.744;7.086;2023-03-13T10:52:24;1.67;;;0.90;;
15764;SDS011;7983;50.744;7.086;2023-03-13T10:54:58;0.93;;;0.73;;
15764;SDS011;7983;50.744;7.086;2023-03-13T10:57:33;1.17;;;0.82;;
15764;SDS011;7983;50.744;7.086;2023-03-13T11:00:03;1.80;;;0.90;;
15764;SDS011;7983;50.744;7.086;2023-03-13T11:02:48;0.75;;;0.60;;
15764;SDS011;7983;50.744;7.086;2023-03-13T11:07:58;0.98;;;0.80;;
15764;SDS011;7983;50.744;7.086;2023-03-13T11:10:55;1.17;;;0.52;;
15764;SDS011;7983;50.744;7.086;2023-03-13T11:15:53;1.00;;;0.65;;
15764;SDS011;7983;50.744;7.086;2023-03-13T11:22:17;0.88;;;0.65;;
15764;SDS011;7983;50.744;7.086;2023-03-13T11:24:19;0.77;;;0.70;;
15764;SDS011;7983;50.744;7.086;2023-03-13T11:27:26;0.73;;;0.60;;
15764;SDS011;7983;50.744;7.086;2023-03-13T11:32:40;1.17;;;0.63;;
15764;SDS011;7983;50.744;7.086;2023-03-13T11:36:01;0.60;;;0.50;;
15764;SDS011;7983;50.744;7.086;2023-03-13T11:38:12;0.90;;;0.60;;
15764;SDS011;7983;50.744;7.086;2023-03-13T11:41:02;0.90;;;0.47;;
15764;SDS011;7983;50.744;7.086;2023-03-13T11:46:36;0.98;;;0.60;;
15764;SDS011;7983;50.744;7.086;2023-03-13T11:51:52;0.50;;;0.40;;
15764;SDS011;7983;50.744;7.086;2023-03-13T11:57:20;1.63;;;0.43;;
15764;SDS011;7983;50.744;7.086;2023-03-13T12:05:23;0.88;;;0.43;;
15764;SDS011;7983;50.744;7.086;2023-03-13T12:10:30;0.40;;;0.40;;
15764;SDS011;7983;50.744;7.086;2023-03-13T12:15:31;1.13;;;0.50;;
15764;SDS011;7983;50.744;7.086;2023-03-13T12:21:10;1.27;;;0.52;;
15764;SDS011;7983;50.744;7.086;2023-03-13T12:26:43;0.88;;;0.52;;
15764;SDS011;7983;50.744;7.086;2023-03-13T12:35:06;1.23;;;0.52;;
15764;SDS011;7983;50.744;7.086;2023-03-13T12:37:35;1.02;;;0.50;;
15764;SDS011;7983;50.744;7.086;2023-03-13T12:40:22;1.95;;;0.82;;
15764;SDS011;7983;50.744;7.086;2023-03-13T12:43:16;1.05;;;0.65;;
15764;SDS011;7983;50.744;7.086;2023-03-13T12:48:39;0.75;;;0.70;;
15764;SDS011;7983;50.744;7.086;2023-03-13T13:01:51;1.48;;;0.70;;
15764;SDS011;7983;50.744;7.086;2023-03-13T13:09:32;1.10;;;0.70;;
15764;SDS011;7983;50.744;7.086;2023-03-13T13:12:01;0.88;;;0.60;;
15764;SDS011;7983;50.744;7.086;2023-03-13T13:29:59;2.45;;;0.60;;
15764;SDS011;7983;50.744;7.086;2023-03-13T13:32:34;1.15;;;0.60;;
15764;SDS011;7983;50.744;7.086;2023-03-13T13:37:45;1.27;;;0.70;;
15764;SDS011;7983;50.744;7.086;2023-03-13T13:42:46;2.10;;;0.73;;
15764;SDS011;7983;50.744;7.086;2023-03-13T13:45:29;0.85;;;0.60;;
15764;SDS011;7983;50.744;7.086;2023-03-13T14:04:35;1.50;;;0.63;;
15764;SDS011;7983;50.744;7.086;2023-03-13T14:07:09;1.23;;;0.60;;
15764;SDS011;7983;50.744;7.086;2023-03-13T14:09:46;1.23;;;0.50;;
15764;SDS011;7983;50.744;7.086;2023-03-13T14:17:41;0.82;;;0.50;;
15764;SDS011;7983;50.744;7.086;2023-03-13T14:23:06;0.93;;;0.60;;
15764;SDS011;7983;50.744;7.086;2023-03-13T14:30:52;0.88;;;0.50;;
15764;SDS011;7983;50.744;7.086;2023-03-13T14:33:22;0.35;;;0.30;;
15764;SDS011;7983;50.744;7.086;2023-03-13T14:35:50;0.63;;;0.30;;
15764;SDS011;7983;50.744;7.086;2023-03-13T14:38:22;0.50;;;0.40;;
15764;SDS011;7983;50.744;7.086;2023-03-13T14:40:53;0.60;;;0.57;;
15764;SDS011;7983;50.744;7.086;2023-03-13T14:46:00;0.50;;;0.40;;
15764;SDS011;7983;50.744;7.086;2023-03-13T14:48:48;1.02;;;0.52;;
15764;SDS011;7983;50.744;7.086;2023-03-13T14:51:19;0.85;;;0.40;;
15764;SDS011;7983;50.744;7.086;2023-03-13T14:53:53;0.57;;;0.50;;
15764;SDS011;7983;50.744;7.086;2023-03-13T14:56:30;1.05;;;0.50;;
15764;SDS011;7983;50.744;7.086;2023-03-13T14:59:22;1.30;;;0.38;;
15764;SDS011;7983;50.744;7.086;2023-03-13T15:04:58;0.55;;;0.30;;
15764;SDS011;7983;50.744;7.086;2023-03-13T15:07:26;0.40;;;0.40;;
15764;SDS011;7983;50.744;7.086;2023-03-13T15:10:21;1.15;;;0.40;;
15764;SDS011;7983;50.744;7.086;2023-03-13T15:12:57;0.52;;;0.50;;
15764;SDS011;7983;50.744;7.086;2023-03-13T15:15:26;0.75;;;0.43;;
15764;SDS011;7983;50.744;7.086;2023-03-13T15:17:52;0.38;;;0.35;;
15764;SDS011;7983;50.744;7.086;2023-03-13T15:20:17;0.40;;;0.30;;
15764;SDS011;7983;50.744;7.086;2023-03-13T15:22:46;0.60;;;0.50;;
15764;SDS011;7983;50.744;7.086;2023-03-13T15:25:18;1.75;;;0.73;;
15764;SDS011;7983;50.744;7.086;2023-03-13T15:27:46;3.90;;;0.70;;
15764;SDS011;7983;50.744;7.086;2023-03-13T15:30:16;0.95;;;0.50;;
15764;SDS011;7983;50.744;7.086;2023-03-13T15:32:43;1.75;;;0.70;;
15764;SDS011;7983;50.744;7.086;2023-03-13T15:35:32;1.88;;;0.60;;
15764;SDS011;7983;50.744;7.086;2023-03-13T15:38:01;1.52;;;0.80;;
15764;SDS011;7983;50.744;7.086;2023-03-13T15:40:30;1.75;;;0.73;;
15764;SDS011;7983;50.744;7.086;2023-03-13T15:42:56;1.08;;;0.60;;
15764;SDS011;7983;50.744;7.086;2023-03-13T15:45:24;1.85;;;0.70;;
15764;SDS011;7983;50.744;7.086;2023-03-13T15:47:50;2.17;;;0.80;;
15764;SDS011;7983;50.744;7.086;2023-03-13T15:50:17;1.15;;;0.70;;
15764;SDS011;7983;50.744;7.086;2023-03-13T15:52:47;1.55;;;0.60;;
15764;SDS011;7983;50.744;7.086;2023-03-13T15:55:13;1.48;;;0.70;;
15764;SDS011;7983;50.744;7.086;2023-03-13T15:57:41;1.58;;;0.70;;
15764;SDS011;7983;50.744;7.086;2023-03-13T16:00:19;1.55;;;0.80;;
15764;SDS011;7983;50.744;7.086;2023-03-13T16:02:47;1.67;;;0.60;;
15764;SDS011;7983;50.744;7.086;2023-03-13T16:05:16;2.10;;;0.90;;
15764;SDS011;7983;50.744;7.086;2023-03-13T16:07:44;1.02;;;0.65;;
15764;SDS011;7983;50.744;7.086;2023-03-13T16:10:13;1.85;;;0.75;;
15764;SDS011;7983;50.744;7.086;2023-03-13T16:12:57;2.33;;;1.00;;
15764;SDS011;7983;50.744;7.086;2023-03-13T16:15:22;1.23;;;0.80;;
15764;SDS011;7983;50.744;7.086;2023-03-13T16:17:48;2.38;;;1.00;;
15764;SDS011;7983;50.744;7.086;2023-03-13T16:20:16;1.35;;;0.88;;
15764;SDS011;7983;50.744;7.086;2023-03-13T16:22:45;1.25;;;0.70;;
15764;SDS011;7983;50.744;7.086;2023-03-13T16:25:13;1.90;;;0.70;;
15764;SDS011;7983;50.744;7.086;2023-03-13T16:27:41;2.80;;;1.00;;
15764;SDS011;7983;50.744;7.086;2023-03-13T16:32:45;2.33;;;0.80;;
15764;SDS011;7983;50.744;7.086;2023-03-13T16:35:11;2.50;;;0.80;;
15764;SDS011;7983;50.744;7.086;2023-03-13T16:37:37;2.35;;;0.90;;
15764;SDS011;7983;50.744;7.086;2023-03-13T16:40:10;1.90;;;0.77;;
15764;SDS011;7983;50.744;7.086;2023-03-13T16:42:42;2.58;;;0.85;;
15764;SDS011;7983;50.744;7.086;2023-03-13T16:45:08;1.17;;;0.70;;
15764;SDS011;7983;50.744;7.086;2023-03-13T16:47:37;1.73;;;0.80;;
15764;SDS011;7983;50.744;7.086;2023-03-13T16:50:25;2.33;;;1.00;;
15764;SDS011;7983;50.744;7.086;2023-03-13T16:53:00;2.05;;;1.00;;
15764;SDS011;7983;50.744;7.086;2023-03-13T16:55:31;1.65;;;0.82;;
15764;SDS011;7983;50.744;7.086;2023-03-13T16:58:00;3.60;;;1.00;;
15764;SDS011;7983;50.744;7.086;2023-03-13T17:00:29;1.40;;;0.77;;
15764;SDS011;7983;50.744;7.086;2023-03-13T17:02:56;1.75;;;0.88;;
15764;SDS011;7983;50.744;7.086;2023-03-13T17:05:22;2.25;;;0.93;;
15764;SDS011;7983;50.744;7.086;2023-03-13T17:07:54;2.80;;;1.00;;
15764;SDS011;7983;50.744;7.086;2023-03-13T17:10:26;1.60;;;0.98;;
15764;SDS011;7983;50.744;7.086;2023-03-13T17:12:56;1.73;;;1.02;;
15764;SDS011;7983;50.744;7.086;2023-03-13T17:15:24;2.70;;;1.10;;
15764;SDS011;7983;50.744;7.086;2023-03-13T17:17:54;2.40;;;1.23;;
15764;SDS011;7983;50.744;7.086;2023-03-13T17:20:26;2.45;;;1.00;;
15764;SDS011;7983;50.744;7.086;2023-03-13T17:22:55;2.42;;;0.80;;
15764;SDS011;7983;50.744;7.086;2023-03-13T17:25:20;2.08;;;1.00;;
15764;SDS011;7983;50.744;7.086;2023-03-13T17:27:49;1.67;;;0.90;;
15764;SDS011;7983;50.744;7.086;2023-03-13T17:32:43;1.50;;;1.00;;
15764;SDS011;7983;50.744;7.086;2023-03-13T17:35:08;1.27;;;0.90;;
15764;SDS011;7983;50.744;7.086;2023-03-13T17:37:34;1.77;;;0.90;;
15764;SDS011;7983;50.744;7.086;2023-03-13T17:40:00;2.30;;;0.70;;
15764;SDS011;7983;50.744;7.086;2023-03-13T17:42:28;1.98;;;0.90;;
15764;SDS011;7983;50.744;7.086;2023-03-13T17:44:54;1.70;;;0.90;;
15764;SDS011;7983;50.744;7.086;2023-03-13T17:47:20;2.80;;;0.82;;
15764;SDS011;7983;50.744;7.086;2023-03-13T17:49:50;1.75;;;0.90;;